Time;durP1;ratioP1;P1;durP2;ratioP2;P2;SDS_P1;SDS_P2;PMS_P1;PMS_P2;Temp;Humidity;BMP_temperature;BMP_pressure;BME280_temperature;BME280_humidity;BME280_pressure;Samples;Min_cycle;Max_cycle;Signal;HPM_P1;HPM_P2
2022/12/27 00:01:16;;;;;;;0.40;0.20;;;;;;;6.89;100.00;100193.44;7392110;19;20019;-83
2022/12/27 00:03:43;;;;;;;0.40;0.40;;;;;;;6.89;100.00;100199.75;7401210;19;20014;-85
2022/12/27 00:06:17;;;;;;;0.47;0.47;;;;;;;7.37;100.00;100190.31;7397556;19;20015;-84
2022/12/27 00:08:44;;;;;;;0.30;0.20;;;;;;;7.20;100.00;100196.44;7398162;19;20048;-86
2022/12/27 00:11:13;;;;;;;0.85;0.50;;;;;;;6.74;100.00;100195.88;7392374;19;20342;-82
2022/12/27 00:13:39;;;;;;;0.20;0.20;;;;;;;6.45;100.00;100191.63;7396850;19;20037;-82
2022/12/27 00:16:09;;;;;;;0.55;0.25;;;;;;;7.16;100.00;100196.56;7392129;19;20023;-82
2022/12/27 00:18:36;;;;;;;5.78;1.05;;;;;;;7.05;100.00;100207.19;7395826;19;20026;-83
2022/12/27 00:21:03;;;;;;;21.73;1.38;;;;;;;7.29;100.00;100211.16;7396048;19;20010;-82
2022/12/27 00:23:32;;;;;;;0.35;0.35;;;;;;;6.80;100.00;100219.00;7399652;19;20414;-83
2022/12/27 00:26:03;;;;;;;8.05;0.77;;;;;;;6.29;100.00;100230.38;7397710;19;20011;-83
2022/12/27 00:28:31;;;;;;;1.83;0.50;;;;;;;6.76;100.00;100223.09;7398165;19;20014;-82
2022/12/27 00:30:58;;;;;;;6.13;0.98;;;;;;;6.24;100.00;100228.19;7394790;19;20019;-83
2022/12/27 00:33:25;;;;;;;0.43;0.43;;;;;;;6.40;100.00;100223.34;7394422;19;20361;-82
2022/12/27 00:35:52;;;;;;;0.30;0.30;;;;;;;6.93;100.00;100224.56;7396795;19;20014;-83
2022/12/27 00:38:18;;;;;;;0.52;0.52;;;;;;;7.03;100.00;100234.53;7395294;19;20365;-82
2022/12/27 00:40:44;;;;;;;0.10;0.10;;;;;;;6.92;100.00;100231.31;7396229;19;20092;-82
2022/12/27 00:43:11;;;;;;;0.10;0.10;;;;;;;6.64;100.00;100229.41;7397377;19;20014;-82
2022/12/27 00:45:37;;;;;;;0.13;0.10;;;;;;;6.77;100.00;100219.13;7397289;19;20353;-82
2022/12/27 00:48:03;;;;;;;0.20;0.20;;;;;;;6.99;100.00;100225.56;7398128;19;20018;-82
2022/12/27 00:50:29;;;;;;;0.77;0.40;;;;;;;7.11;100.00;100224.78;7395467;19;20026;-82
2022/12/27 00:52:55;;;;;;;2.25;0.38;;;;;;;7.25;100.00;100224.38;7396030;19;20406;-82
2022/12/27 00:55:22;;;;;;;0.70;0.20;;;;;;;6.93;100.00;100227.31;7395956;19;20011;-82
2022/12/27 00:57:48;;;;;;;0.10;0.10;;;;;;;6.90;100.00;100239.28;7396913;19;20077;-81
2022/12/27 01:00:14;;;;;;;0.38;0.20;;;;;;;6.98;100.00;100231.53;7396055;19;20014;-82
2022/12/27 01:02:40;;;;;;;0.20;0.20;;;;;;;6.76;100.00;100225.84;7397465;19;20488;-82
2022/12/27 01:05:07;;;;;;;0.10;0.10;;;;;;;5.20;100.00;100231.16;7396091;19;20015;-82
2022/12/27 01:07:33;;;;;;;0.10;0.10;;;;;;;4.40;100.00;100237.25;7395834;19;20427;-83
2022/12/27 01:09:59;;;;;;;0.30;0.25;;;;;;;3.97;100.00;100229.00;7390514;19;20041;-83
2022/12/27 01:12:25;;;;;;;7.47;0.93;;;;;;;4.39;100.00;100228.22;7392156;19;20464;-83
2022/12/27 01:14:51;;;;;;;0.38;0.15;;;;;;;2.98;100.00;100236.16;7389397;19;20069;-82
2022/12/27 01:17:18;;;;;;;0.10;0.10;;;;;;;2.59;100.00;100240.63;7392646;19;20014;-83
2022/12/27 01:19:44;;;;;;;20.52;1.00;;;;;;;3.03;100.00;100232.16;7390917;19;20019;-83
2022/12/27 01:22:11;;;;;;;0.32;0.32;;;;;;;2.68;100.00;100232.66;7391102;19;20427;-82
2022/12/27 01:24:37;;;;;;;2.17;0.30;;;;;;;2.62;100.00;100237.81;7392500;19;20014;-82
2022/12/27 01:27:03;;;;;;;0.17;0.10;;;;;;;2.27;100.00;100246.50;7392761;19;20100;-82
2022/12/27 01:29:29;;;;;;;0.32;0.32;;;;;;;3.48;100.00;100243.66;7389823;19;20041;-82
2022/12/27 01:31:55;;;;;;;0.10;0.10;;;;;;;5.09;100.00;100247.22;7391001;19;20090;-81
2022/12/27 01:34:21;;;;;;;0.10;0.03;;;;;;;2.82;100.00;100238.72;7393392;19;20018;-83
2022/12/27 01:36:49;;;;;;;0.10;0.10;;;;;;;2.33;100.00;100255.84;7393195;19;20010;-83
2022/12/27 01:39:15;;;;;;;20.08;0.82;;;;;;;2.19;100.00;100262.28;7397327;19;20022;-82
2022/12/27 01:44:45;;;;;;;0.10;0.10;;;;;;;2.04;100.00;100260.06;7393843;19;20035;-82
2022/12/27 01:47:12;;;;;;;0.20;0.10;;;;;;;1.90;100.00;100263.75;7395798;19;20019;-82
2022/12/27 01:49:40;;;;;;;0.60;0.30;;;;;;;1.72;100.00;100259.59;7396159;19;20383;-84
2022/12/27 01:52:09;;;;;;;0.10;0.10;;;;;;;1.51;100.00;100253.13;7391667;19;20026;-84
2022/12/27 01:54:35;;;;;;;1.10;0.32;;;;;;;1.38;100.00;100263.03;7391292;19;20014;-83
2022/12/27 01:57:03;;;;;;;1.23;0.52;;;;;;;1.22;100.00;100262.75;7393537;19;20026;-84
2022/12/27 01:59:30;;;;;;;12.20;0.63;;;;;;;1.24;100.00;100262.34;7393773;19;20018;-83
2022/12/27 02:01:57;;;;;;;0.63;0.63;;;;;;;1.26;100.00;100260.75;7392078;19;20026;-85
2022/12/27 02:04:27;;;;;;;0.10;0.10;;;;;;;2.79;100.00;100258.81;7392752;19;20014;-83
2022/12/27 02:06:54;;;;;;;2.60;0.20;;;;;;;3.70;100.00;100264.91;7389776;19;20011;-83
2022/12/27 02:09:20;;;;;;;1.23;0.20;;;;;;;4.01;100.00;100267.50;7394159;19;20274;-85
2022/12/27 02:11:50;;;;;;;0.10;0.10;;;;;;;4.81;100.00;100272.66;7392139;19;20015;-84
2022/12/27 02:14:44;;;;;;;0.50;0.50;;;;;;;4.50;100.00;100272.88;7393201;19;20018;-83
2022/12/27 02:17:24;;;;;;;0.10;0.10;;;;;;;2.20;100.00;100263.84;7390367;19;20046;-84
2022/12/27 02:20:00;;;;;;;0.35;0.35;;;;;;;1.95;100.00;100265.28;7391770;19;20044;-84
2022/12/27 02:22:29;;;;;;;0.22;0.22;;;;;;;1.04;100.00;100275.78;7393762;19;20015;-87
2022/12/27 02:25:01;;;;;;;0.10;0.10;;;;;;;4.30;100.00;100260.28;7393243;19;20014;-82
2022/12/27 02:27:40;;;;;;;0.35;0.35;;;;;;;3.29;100.00;100261.63;7391393;19;20346;-83
2022/12/27 02:30:08;;;;;;;0.17;0.17;;;;;;;3.94;100.00;100259.41;7390510;19;20030;-83
2022/12/27 02:32:55;;;;;;;4.28;0.30;;;;;;;1.44;100.00;100268.84;7391210;19;20029;-84
2022/12/27 02:35:24;;;;;;;0.40;0.40;;;;;;;0.98;100.00;100269.16;7389582;19;20429;-83
2022/12/27 02:37:56;;;;;;;0.50;0.35;;;;;;;1.41;100.00;100264.94;7392132;19;20078;-83
2022/12/27 02:54:36;;;;;;;0.13;0.13;;;;;;;-0.11;100.00;100270.34;7388036;19;20031;-79
2022/12/27 02:57:16;;;;;;;0.20;0.20;;;;;;;0.23;100.00;100275.38;7389670;19;20512;-79
2022/12/27 03:09:10;;;;;;;0.30;0.30;;;;;;;0.45;100.00;100263.16;7393875;19;20095;-79
2022/12/27 03:17:35;;;;;;;0.10;0.10;;;;;;;3.07;100.00;100252.16;7387261;19;20121;-79
2022/12/27 03:25:48;;;;;;;0.10;0.00;;;;;;;4.00;100.00;100239.22;7391655;19;20033;-79
2022/12/27 03:34:38;;;;;;;;;;;;;;;3.87;100.00;100235.50;7384705;19;20019;-79
2022/12/27 03:40:33;;;;;;;0.20;0.20;;;;;;;4.05;100.00;100227.69;7387304;19;20042;-79
2022/12/27 03:43:12;;;;;;;0.10;0.10;;;;;;;3.81;100.00;100235.19;7389245;19;20430;-79
2022/12/27 03:49:03;;;;;;;0.10;0.10;;;;;;;2.81;100.00;100226.19;7388122;19;20026;-79
2022/12/27 03:51:34;;;;;;;0.20;0.20;;;;;;;2.61;100.00;100222.53;7386872;19;20023;-79
2022/12/27 03:54:05;;;;;;;;;;;;;;;2.45;100.00;100227.06;7390569;19;20014;-79
2022/12/27 03:56:32;;;;;;;2.65;0.43;;;;;;;2.37;100.00;100231.84;7386968;19;19935;-79
2022/12/27 03:58:59;;;;;;;0.20;0.20;;;;;;;2.12;100.00;100239.59;7387697;19;20025;-79
2022/12/27 04:01:25;;;;;;;0.30;0.30;;;;;;;1.70;100.00;100243.53;7384695;19;20022;-79
2022/12/27 04:03:52;;;;;;;0.20;0.20;;;;;;;1.23;100.00;100236.88;7390315;19;20011;-79
2022/12/27 04:06:18;;;;;;;0.20;0.20;;;;;;;1.89;100.00;100239.44;7382710;19;20384;-79
2022/12/27 04:36:10;;;;;;;0.10;0.10;;;;;;;0.42;100.00;100220.13;7392789;19;20507;-79
2022/12/27 04:38:37;;;;;;;0.20;0.20;;;;;;;-0.08;100.00;100228.50;7395165;19;20019;-81
2022/12/27 04:55:23;;;;;;;0.68;0.32;;;;;;;4.19;100.00;100191.59;7395345;19;20471;-80
2022/12/27 04:57:51;;;;;;;0.45;0.40;;;;;;;4.13;100.00;100195.25;7396423;19;20043;-80
2022/12/27 05:03:09;;;;;;;7.22;0.40;;;;;;;4.07;100.00;100183.94;7396500;19;20034;-80
2022/12/27 05:05:37;;;;;;;0.75;0.50;;;;;;;3.93;100.00;100184.22;7392806;19;20024;-80
2022/12/27 05:16:20;;;;;;;0.10;0.10;;;;;;;4.17;100.00;100193.22;7391030;19;20025;-79
2022/12/27 05:18:46;;;;;;;0.10;0.10;;;;;;;4.18;100.00;100201.03;7392618;19;20022;-80
2022/12/27 05:21:12;;;;;;;0.20;0.20;;;;;;;4.18;100.00;100190.03;7391501;19;20030;-79
2022/12/27 05:26:26;;;;;;;0.10;0.10;;;;;;;6.35;100.00;100181.63;7397989;19;20025;-79
2022/12/27 05:28:55;;;;;;;0.10;0.10;;;;;;;6.19;100.00;100182.47;7391321;19;20021;-79
2022/12/27 05:31:24;;;;;;;1.48;0.40;;;;;;;3.34;100.00;100186.06;7390063;19;20015;-79
2022/12/27 05:33:51;;;;;;;0.10;0.10;;;;;;;2.53;100.00;100181.78;7392686;19;20011;-79
2022/12/27 05:36:18;;;;;;;0.10;0.00;;;;;;;1.83;100.00;100188.91;7390886;19;20078;-79
2022/12/27 05:38:44;;;;;;;0.10;0.10;;;;;;;2.24;100.00;100189.63;7393638;19;20022;-80
2022/12/27 05:41:10;;;;;;;0.63;0.15;;;;;;;5.63;100.00;100170.91;7390918;19;20022;-79
2022/12/27 05:43:37;;;;;;;2.30;0.22;;;;;;;6.17;100.00;100175.84;7397033;19;20041;-79
2022/12/27 05:46:06;;;;;;;0.10;0.10;;;;;;;3.40;100.00;100176.16;7393440;19;20014;-79
2022/12/27 05:48:32;;;;;;;0.10;0.10;;;;;;;2.92;100.00;100176.53;7392550;19;20010;-79
2022/12/27 05:51:04;;;;;;;0.15;0.15;;;;;;;3.10;100.00;100181.75;7390636;19;20019;-80
2022/12/27 05:53:30;;;;;;;0.32;0.32;;;;;;;2.32;100.00;100177.34;7392827;19;20045;-80
2022/12/27 05:55:57;;;;;;;0.20;0.13;;;;;;;1.67;100.00;100161.25;7389439;19;20435;-79
2022/12/27 05:58:23;;;;;;;0.13;0.13;;;;;;;1.45;100.00;100166.91;7389587;19;20016;-79
2022/12/27 06:00:50;;;;;;;0.32;0.32;;;;;;;1.94;100.00;100162.09;7389513;19;20018;-80
2022/12/27 06:03:16;;;;;;;0.50;0.50;;;;;;;1.67;100.00;100158.50;7394811;19;20352;-79
2022/12/27 06:05:42;;;;;;;0.10;0.10;;;;;;;1.40;100.00;100161.88;7390021;19;20015;-80
2022/12/27 06:08:09;;;;;;;1.98;0.75;;;;;;;1.25;100.00;100165.16;7393164;19;20393;-79
2022/12/27 06:10:35;;;;;;;0.55;0.35;;;;;;;1.16;100.00;100160.13;7390111;19;20053;-80
2022/12/27 06:13:02;;;;;;;0.10;0.10;;;;;;;1.11;100.00;100154.28;7392084;19;20078;-80
2022/12/27 06:15:29;;;;;;;0.35;0.35;;;;;;;1.06;100.00;100155.50;7389371;19;20019;-79
2022/12/27 06:17:56;;;;;;;0.10;0.10;;;;;;;1.90;100.00;100144.91;7388871;19;20472;-80
2022/12/27 06:20:22;;;;;;;0.30;0.30;;;;;;;1.21;100.00;100143.22;7390381;19;20028;-79
2022/12/27 06:22:49;;;;;;;0.10;0.10;;;;;;;1.02;100.00;100141.03;7393720;19;20061;-80
2022/12/27 06:25:15;;;;;;;0.10;0.10;;;;;;;0.98;100.00;100145.78;7391151;19;20014;-80
2022/12/27 06:27:41;;;;;;;0.10;0.00;;;;;;;0.93;100.00;100143.50;7392544;19;20092;-80
2022/12/27 06:30:09;;;;;;;0.25;0.20;;;;;;;0.92;100.00;100138.38;7391882;19;20022;-80
2022/12/27 06:32:35;;;;;;;0.10;0.10;;;;;;;0.92;100.00;100147.41;7391145;19;20461;-79
2022/12/27 06:35:02;;;;;;;1.75;0.65;;;;;;;0.95;100.00;100152.09;7389874;19;20018;-80
2022/12/27 06:37:29;;;;;;;0.10;0.10;;;;;;;0.84;100.00;100156.06;7390736;19;20342;-81
2022/12/27 06:39:56;;;;;;;0.10;0.10;;;;;;;1.21;100.00;100153.44;7385934;19;20021;-81
2022/12/27 06:42:22;;;;;;;0.10;0.10;;;;;;;4.34;100.00;100134.19;7391722;19;20014;-80
2022/12/27 06:44:48;;;;;;;0.55;0.55;;;;;;;4.77;100.00;100134.00;7390488;19;20029;-80
2022/12/27 06:47:15;;;;;;;0.10;0.00;;;;;;;2.08;100.00;100145.47;7389676;19;20018;-80
2022/12/27 06:49:41;;;;;;;0.10;0.10;;;;;;;1.38;100.00;100127.81;7389850;19;20011;-81
2022/12/27 06:52:07;;;;;;;0.20;0.20;;;;;;;1.34;100.00;100125.06;7389727;19;20014;-80
2022/12/27 06:54:33;;;;;;;0.60;0.60;;;;;;;1.17;100.00;100119.78;7387783;19;20018;-80
2022/12/27 06:56:59;;;;;;;0.10;0.10;;;;;;;1.10;100.00;100119.84;7390594;19;20022;-78
2022/12/27 06:59:26;;;;;;;0.52;0.25;;;;;;;1.06;100.00;100122.59;7390668;19;20489;-80
2022/12/27 07:01:52;;;;;;;0.10;0.10;;;;;;;2.40;100.00;100112.09;7389708;19;20018;-79
2022/12/27 07:04:18;;;;;;;0.40;0.22;;;;;;;4.90;100.00;100108.06;7390751;19;20014;-79
2022/12/27 07:06:44;;;;;;;0.10;0.10;;;;;;;1.98;100.00;100102.44;7392802;19;20019;-80
2022/12/27 07:09:10;;;;;;;0.17;0.17;;;;;;;1.43;100.00;100099.91;7394328;19;20026;-80
2022/12/27 07:11:36;;;;;;;0.10;0.10;;;;;;;1.30;100.00;100098.91;7389380;19;20539;-80
2022/12/27 07:14:03;;;;;;;0.10;0.03;;;;;;;1.21;100.00;100106.81;7393071;19;20019;-80
2022/12/27 07:16:30;;;;;;;0.20;0.20;;;;;;;1.19;100.00;100112.69;7387950;19;20018;-80
2022/12/27 07:18:57;;;;;;;0.10;0.10;;;;;;;1.19;100.00;100125.63;7389991;19;20031;-80
2022/12/27 07:21:25;;;;;;;0.10;0.10;;;;;;;1.46;100.00;100110.88;7387652;19;20018;-80
2022/12/27 07:23:52;;;;;;;0.10;0.10;;;;;;;1.31;100.00;100109.44;7393740;19;20037;-80
2022/12/27 07:26:22;;;;;;;0.10;0.10;;;;;;;1.63;100.00;100105.56;7394948;19;20022;-80
2022/12/27 07:28:52;;;;;;;0.10;0.10;;;;;;;1.53;100.00;100099.03;7390405;19;20094;-80
2022/12/27 07:31:25;;;;;;;0.47;0.30;;;;;;;2.31;100.00;100109.84;7388482;19;20023;-80
2022/12/27 07:33:51;;;;;;;0.10;0.10;;;;;;;2.58;100.00;100091.38;7392168;19;20015;-80
2022/12/27 07:36:21;;;;;;;0.10;0.10;;;;;;;2.22;100.00;100102.13;7388855;19;20022;-83
2022/12/27 07:38:48;;;;;;;0.20;0.20;;;;;;;1.97;100.00;100095.41;7391998;19;20006;-81
2022/12/27 07:41:15;;;;;;;0.20;0.20;;;;;;;1.88;100.00;100086.88;7390242;19;20011;-81
2022/12/27 07:43:43;;;;;;;0.17;0.17;;;;;;;1.77;100.00;100092.50;7392651;19;20018;-82
2022/12/27 07:46:18;;;;;;;0.10;0.10;;;;;;;1.77;100.00;100099.94;7390597;19;20535;-80
2022/12/27 07:48:46;;;;;;;0.10;0.10;;;;;;;1.80;100.00;100093.66;7390205;19;20141;-80
2022/12/27 07:51:13;;;;;;;0.43;0.20;;;;;;;1.64;100.00;100094.22;7390669;19;20018;-80
2022/12/27 07:53:40;;;;;;;0.77;0.50;;;;;;;1.62;100.00;100093.06;7397322;19;20015;-80
2022/12/27 07:56:07;;;;;;;2.40;0.63;;;;;;;1.70;100.00;100089.03;7392526;19;20018;-81
2022/12/27 07:58:38;;;;;;;0.20;0.20;;;;;;;1.71;100.00;100085.13;7391391;19;20022;-80
2022/12/27 08:01:05;;;;;;;0.10;0.00;;;;;;;1.73;100.00;100090.97;7390751;19;20010;-80
2022/12/27 08:03:31;;;;;;;0.10;0.10;;;;;;;4.20;100.00;100093.91;7398960;19;20041;-80
2022/12/27 08:05:58;;;;;;;0.10;0.10;;;;;;;6.33;100.00;100084.47;7397394;19;20342;-81
2022/12/27 08:08:29;;;;;;;0.10;0.10;;;;;;;6.99;100.00;100080.81;7400445;19;20107;-81
2022/12/27 08:10:56;;;;;;;0.10;0.10;;;;;;;6.16;100.00;100080.25;7395050;19;20014;-80
2022/12/27 08:13:22;;;;;;;0.63;0.40;;;;;;;6.02;100.00;100075.94;7397528;19;20070;-80
2022/12/27 08:15:50;;;;;;;0.00;0.00;;;;;;;6.05;100.00;100081.34;7393415;19;20035;-81
2022/12/27 08:18:16;;;;;;;0.20;0.20;;;;;;;5.98;100.00;100078.78;7393758;19;20707;-81
2022/12/27 08:20:42;;;;;;;0.05;0.00;;;;;;;7.32;100.00;100068.22;7392094;19;20014;-80
2022/12/27 08:23:09;;;;;;;0.10;0.10;;;;;;;8.73;100.00;100077.59;7398531;19;20025;-80
2022/12/27 08:25:35;;;;;;;2.05;0.20;;;;;;;8.37;100.00;100077.47;7396467;19;20032;-81
2022/12/27 08:28:06;;;;;;;14.32;0.63;;;;;;;8.01;100.00;100075.22;7394359;19;20516;-81
2022/12/27 08:30:33;;;;;;;0.10;0.10;;;;;;;7.45;100.00;100064.16;7393074;19;20046;-81
2022/12/27 08:33:03;;;;;;;0.20;0.20;;;;;;;7.15;100.00;100053.75;7393942;19;20010;-81
2022/12/27 08:35:29;;;;;;;0.30;0.30;;;;;;;6.34;100.00;100047.31;7393342;19;20774;-81
2022/12/27 08:37:55;;;;;;;1.45;0.32;;;;;;;6.13;100.00;100043.97;7395678;19;20026;-81
2022/12/27 08:40:22;;;;;;;0.57;0.40;;;;;;;6.94;100.00;100046.16;7391437;19;20018;-81
2022/12/27 08:42:48;;;;;;;0.10;0.10;;;;;;;6.96;100.00;100043.72;7395965;19;20007;-81
2022/12/27 08:45:15;;;;;;;0.63;0.38;;;;;;;6.20;100.00;100042.22;7396092;19;20360;-82
2022/12/27 08:47:41;;;;;;;0.10;0.10;;;;;;;6.14;100.00;100039.22;7394822;19;20375;-85
2022/12/27 08:50:08;;;;;;;2.10;0.45;;;;;;;7.14;100.00;100048.66;7393404;19;20011;-81
2022/12/27 08:52:34;;;;;;;0.10;0.10;;;;;;;6.48;100.00;100046.88;7394227;19;20019;-81
2022/12/27 08:55:01;;;;;;;0.30;0.30;;;;;;;6.51;100.00;100035.72;7390234;19;20030;-80
2022/12/27 08:57:27;;;;;;;0.65;0.30;;;;;;;6.80;100.00;100035.53;7389484;19;20548;-81
2022/12/27 08:59:53;;;;;;;1.50;0.30;;;;;;;7.08;100.00;100034.59;7392020;19;20014;-83
2022/12/27 09:02:19;;;;;;;1.55;0.60;;;;;;;7.15;100.00;100034.38;7393860;19;20007;-83
2022/12/27 09:04:47;;;;;;;5.15;0.73;;;;;;;7.13;100.00;100031.28;7394070;19;20381;-82
2022/12/27 09:07:13;;;;;;;0.40;0.40;;;;;;;7.21;100.00;100027.03;7396786;19;20560;-84
2022/12/27 09:09:41;;;;;;;3.08;0.77;;;;;;;7.41;100.00;100029.50;7396540;19;20032;-86
2022/12/27 09:12:07;;;;;;;0.35;0.10;;;;;;;7.36;100.00;100022.53;7395695;19;20019;-85
2022/12/27 09:14:34;;;;;;;1.70;0.38;;;;;;;7.55;100.00;100018.72;7397364;19;20016;-83
2022/12/27 09:17:00;;;;;;;4.22;0.50;;;;;;;7.54;100.00;100016.38;7396048;19;20021;-84
2022/12/27 09:19:26;;;;;;;5.93;0.77;;;;;;;7.58;100.00;100020.56;7396675;19;20022;-82
2022/12/27 09:21:52;;;;;;;3.55;0.52;;;;;;;8.22;100.00;100015.41;7393933;19;20022;-86
2022/12/27 09:24:19;;;;;;;1.08;0.98;;;;;;;9.27;100.00;100001.19;7393971;19;20011;-81
2022/12/27 09:26:45;;;;;;;1.65;0.88;;;;;;;9.81;100.00;100001.13;7399284;19;20021;-86
2022/12/27 09:29:12;;;;;;;0.35;0.35;;;;;;;9.79;100.00;99995.25;7395491;19;20035;-83
2022/12/27 09:31:38;;;;;;;0.55;0.43;;;;;;;9.67;100.00;99996.97;7390632;19;20010;-82
2022/12/27 09:34:04;;;;;;;1.10;0.95;;;;;;;9.65;100.00;99999.47;7386882;19;20019;-82
2022/12/27 09:36:30;;;;;;;3.08;0.88;;;;;;;9.69;100.00;99993.72;7388681;19;20018;-82
2022/12/27 09:38:57;;;;;;;0.10;0.10;;;;;;;9.71;100.00;99983.69;7393979;19;20038;-83
2022/12/27 09:41:45;;;;;;;2.92;1.40;;;;;;;10.28;100.00;99989.41;7389111;19;20018;-83
2022/12/27 09:44:15;;;;;;;2.65;1.05;;;;;;;9.08;100.00;99992.06;7391676;19;20029;-83
2022/12/27 09:46:51;;;;;;;1.85;0.20;;;;;;;8.73;100.00;99983.22;7390951;19;20015;-83
2022/12/27 09:49:28;;;;;;;3.67;0.52;;;;;;;8.89;100.00;99980.16;7391754;19;20360;-83
2022/12/27 09:52:02;;;;;;;2.75;0.35;;;;;;;8.28;100.00;99963.66;7388650;19;20110;-83
2022/12/27 09:54:35;;;;;;;1.15;0.70;;;;;;;6.61;100.00;99961.84;7389472;19;20022;-82
2022/12/27 09:57:04;;;;;;;2.40;0.38;;;;;;;5.41;100.00;99954.53;7392596;19;20475;-83
2022/12/27 09:59:42;;;;;;;10.27;0.98;;;;;;;6.55;100.00;99952.59;7390106;19;20015;-83
2022/12/27 10:02:23;;;;;;;0.20;0.20;;;;;;;7.23;100.00;99941.53;7391652;19;20018;-82
2022/12/27 10:04:53;;;;;;;1.10;0.98;;;;;;;7.74;100.00;99949.50;7393523;19;20051;-83
2022/12/27 10:07:48;;;;;;;3.20;1.05;;;;;;;7.76;100.00;99939.53;7393847;19;20015;-83
2022/12/27 10:10:32;;;;;;;1.55;0.45;;;;;;;7.63;100.00;99928.53;7392738;19;20018;-82
2022/12/27 10:13:13;;;;;;;1.00;0.43;;;;;;;7.67;100.00;99930.41;7393768;19;20467;-83
2022/12/27 10:15:59;;;;;;;5.80;1.08;;;;;;;7.68;100.00;99920.84;7390539;19;20370;-83
2022/12/27 10:18:51;;;;;;;0.40;0.35;;;;;;;7.74;100.00;99927.34;7392273;19;20081;-82
2022/12/27 10:21:22;;;;;;;0.85;0.57;;;;;;;7.77;100.00;99918.13;7391267;19;20010;-84
2022/12/27 10:23:54;;;;;;;2.38;0.85;;;;;;;7.90;100.00;99916.03;7396721;19;20022;-84
2022/12/27 10:26:21;;;;;;;0.15;0.15;;;;;;;7.73;100.00;99915.50;7396217;19;20010;-83
2022/12/27 10:29:00;;;;;;;4.70;0.75;;;;;;;8.40;100.00;99910.06;7391146;19;20026;-83
2022/12/27 10:31:29;;;;;;;1.08;0.75;;;;;;;6.26;100.00;99914.00;7389580;19;20030;-83
2022/12/27 10:33:56;;;;;;;0.45;0.25;;;;;;;5.11;100.00;99908.81;7393729;19;20026;-83
2022/12/27 10:36:28;;;;;;;1.15;0.75;;;;;;;4.56;100.00;99912.69;7389317;19;20503;-83
2022/12/27 10:38:54;;;;;;;0.70;0.40;;;;;;;4.42;100.00;99902.00;7396868;19;20010;-83
2022/12/27 10:41:24;;;;;;;1.65;0.43;;;;;;;6.97;100.00;99890.25;7392899;19;20021;-85
2022/12/27 10:43:52;;;;;;;0.57;0.55;;;;;;;7.70;100.00;99879.59;7398352;19;20461;-87
2022/12/27 10:46:22;;;;;;;1.70;0.50;;;;;;;8.30;100.00;99877.97;7395221;19;20472;-86
2022/12/27 10:49:02;;;;;;;4.07;1.13;;;;;;;6.40;100.00;99879.59;7395784;19;20029;-84
2022/12/27 10:51:35;;;;;;;1.70;0.85;;;;;;;5.42;100.00;99873.22;7391777;19;20025;-83
2022/12/27 10:54:13;;;;;;;1.17;0.73;;;;;;;5.29;100.00;99858.59;7390302;19;20010;-83
2022/12/27 10:56:42;;;;;;;1.67;1.27;;;;;;;4.44;100.00;99860.97;7389044;19;20055;-83
2022/12/27 10:59:15;;;;;;;0.10;0.10;;;;;;;4.29;100.00;99859.81;7389960;19;20023;-82
2022/12/27 11:01:45;;;;;;;1.02;0.50;;;;;;;4.69;100.00;99843.78;7389536;19;20049;-83
2022/12/27 11:04:18;;;;;;;5.03;0.90;;;;;;;4.52;100.00;99843.06;7392686;19;20026;-84
2022/12/27 11:06:48;;;;;;;3.58;0.60;;;;;;;5.94;100.00;99826.59;7393464;19;20033;-83
2022/12/27 11:09:28;;;;;;;1.65;0.77;;;;;;;7.03;100.00;99813.69;7397248;19;20097;-84
2022/12/27 11:12:13;;;;;;;14.13;1.23;;;;;;;4.88;100.00;99808.97;7393576;19;20014;-84
2022/12/27 11:14:52;;;;;;;1.05;0.38;;;;;;;4.85;100.00;99796.81;7394514;19;20050;-84
2022/12/27 11:17:22;;;;;;;0.95;0.30;;;;;;;4.16;100.00;99809.34;7392699;19;20015;-87
2022/12/27 11:19:49;;;;;;;3.10;0.63;;;;;;;4.02;100.00;99801.47;7393164;19;20015;-86
2022/12/27 11:22:15;;;;;;;0.65;0.57;;;;;;;9.91;100.00;99774.56;7394450;19;20027;-88
2022/12/27 11:24:49;;;;;;;4.32;1.20;;;;;;;11.17;100.00;99771.94;7393374;19;20020;-87
2022/12/27 11:27:24;;;;;;;0.82;0.20;;;;;;;11.87;100.00;99767.19;7398220;19;20017;-86
2022/12/27 11:29:54;;;;;;;5.65;2.45;;;;;;;12.14;100.00;99758.44;7401205;19;20448;-85
2022/12/27 11:32:22;;;;;;;1.33;0.82;;;;;;;10.48;100.00;99759.31;7400169;19;20019;-86
2022/12/27 11:34:50;;;;;;;0.30;0.30;;;;;;;11.96;100.00;99742.72;7401069;19;20078;-86
2022/12/27 11:37:19;;;;;;;1.27;0.52;;;;;;;12.11;100.00;99732.25;7401971;19;20018;-86
2022/12/27 11:39:48;;;;;;;3.67;1.00;;;;;;;11.91;100.00;99737.84;7400468;19;20017;-86
2022/12/27 11:42:20;;;;;;;0.35;0.22;;;;;;;12.27;100.00;99716.19;7399556;19;20022;-85
2022/12/27 11:45:18;;;;;;;0.10;0.10;;;;;;;12.39;100.00;99704.66;7401859;19;20074;-89
2022/12/27 11:48:03;;;;;;;0.98;0.57;;;;;;;12.56;100.00;99699.25;7399072;19;20479;-88
2022/12/27 11:50:44;;;;;;;1.40;0.63;;;;;;;12.05;100.00;99683.97;7400767;19;20548;-84
2022/12/27 11:53:25;;;;;;;0.17;0.17;;;;;;;11.86;100.00;99679.94;7401632;19;20373;-84
2022/12/27 11:56:27;;;;;;;0.57;0.57;;;;;;;11.89;100.00;99670.59;7399766;19;20026;-86
2022/12/27 11:59:00;;;;;;;0.10;0.10;;;;;;;12.10;100.00;99649.78;7397546;19;20019;-85
2022/12/27 12:01:38;;;;;;;0.17;0.17;;;;;;;12.85;100.00;99655.06;7397138;19;20006;-85
2022/12/27 12:04:42;;;;;;;1.55;0.45;;;;;;;13.59;100.00;99650.25;7399584;19;20037;-86
2022/12/27 12:07:39;;;;;;;4.07;0.55;;;;;;;13.17;100.00;99641.84;7399868;19;20030;-86
2022/12/27 12:10:37;;;;;;;0.35;0.35;;;;;;;13.30;100.00;99641.44;7398637;19;20006;-87
2022/12/27 12:13:12;;;;;;;0.15;0.15;;;;;;;13.41;100.00;99628.28;7400157;19;20010;-86
2022/12/27 12:16:03;;;;;;;0.65;0.47;;;;;;;13.50;100.00;99625.28;7397953;19;20015;-86
2022/12/27 12:18:58;;;;;;;0.10;0.05;;;;;;;13.57;100.00;99630.41;7398079;19;20375;-88
2022/12/27 12:21:28;;;;;;;0.40;0.22;;;;;;;13.91;100.00;99627.72;7398013;19;20014;-86
2022/12/27 12:24:05;;;;;;;7.47;0.85;;;;;;;14.04;100.00;99605.63;7405254;19;20472;-87
2022/12/27 12:26:49;;;;;;;2.45;0.60;;;;;;;14.14;100.00;99604.13;7401833;19;20010;-87
2022/12/27 12:30:06;;;;;;;0.45;0.15;;;;;;;14.21;100.00;99598.03;7399333;19;20014;-88
2022/12/27 12:32:57;;;;;;;12.82;0.68;;;;;;;14.23;100.00;99584.28;7398082;19;20015;-87
2022/12/27 12:35:47;;;;;;;0.20;0.20;;;;;;;14.27;100.00;99576.41;7396435;19;20393;-88
2022/12/27 12:38:27;;;;;;;8.25;0.50;;;;;;;13.01;100.00;99572.59;7401765;19;20014;-88
2022/12/27 12:41:19;;;;;;;15.00;1.42;;;;;;;13.19;100.00;99555.44;7398171;19;20006;-85
2022/12/27 12:43:51;;;;;;;8.32;1.45;;;;;;;15.47;100.00;99542.38;7402641;19;20038;-87
2022/12/27 12:46:37;;;;;;;1.00;0.73;;;;;;;15.84;100.00;99543.47;7403381;19;20047;-87
2022/12/27 12:49:28;;;;;;;9.52;1.55;;;;;;;14.53;100.00;99540.50;7399525;19;20011;-86
2022/12/27 12:52:06;;;;;;;2.60;0.90;;;;;;;12.85;100.00;99539.72;7396592;19;20145;-89
2022/12/27 12:54:48;;;;;;;1.33;0.52;;;;;;;10.33;100.00;99538.63;7396234;19;20035;-85
2022/12/27 12:57:24;;;;;;;;;;;;;;;11.52;100.00;99518.97;7396386;19;20019;-92
2022/12/27 13:00:11;;;;;;;1.10;0.38;;;;;;;8.65;100.00;99525.94;7394409;19;19919;-87
2022/12/27 13:03:05;;;;;;;1.20;0.52;;;;;;;16.47;100.00;99509.53;7397630;19;20041;-87
2022/12/27 13:05:42;;;;;;;0.30;0.20;;;;;;;14.35;100.00;99496.22;7395410;19;20015;-87
2022/12/27 13:08:39;;;;;;;5.03;0.57;;;;;;;11.57;100.00;99498.75;7398894;19;20019;-88
2022/12/27 13:11:05;;;;;;;1.42;0.20;;;;;;;11.63;100.00;99496.78;7396361;19;20033;-89
2022/12/27 13:14:05;;;;;;;0.63;0.30;;;;;;;9.98;100.00;99484.91;7401205;19;20010;-88
2022/12/27 13:16:47;;;;;;;0.50;0.20;;;;;;;7.21;100.00;99478.66;7394864;19;20018;-90
2022/12/27 13:19:13;;;;;;;;;;;;;;;6.93;100.00;99479.13;7395009;19;20019;-84
2022/12/27 13:22:07;;;;;;;3.85;0.52;;;;;;;16.69;100.00;99458.00;7392215;19;19963;-83
2022/12/27 13:25:07;;;;;;;0.95;0.60;;;;;;;7.52;100.00;99470.19;7393761;19;20018;-87
2022/12/27 13:28:07;;;;;;;1.55;0.50;;;;;;;6.86;100.00;99458.06;7396015;19;20897;-83
2022/12/27 13:30:39;;;;;;;3.88;0.93;;;;;;;19.58;100.00;99429.44;7397275;19;20015;-87
2022/12/27 13:33:34;;;;;;;1.00;0.70;;;;;;;20.54;98.95;99435.84;7398743;19;20018;-87